Time,TemperatureF,DewpointF,PressureIn,WindDirection,WindDirectionDegrees,WindSpeedMPH,WindSpeedGustMPH,Humidity,HourlyPrecipIn,Conditions,Clouds,dailyrainin,SoftwareType,DateUTC
2013-03-19 00:01:00,58.2,57.0,29.89,NNE,18,2.0,4.0,96,0.00,,,0.00,weatherlink.com 1.10,2013-03-19 05:01:00,
2013-03-19 00:16:00,58.3,57.0,29.88,SSE,150,0.0,3.0,96,0.00,,,0.00,weatherlink.com 1.10,2013-03-19 05:16:00,
2013-03-19 00:32:00,58.3,57.0,29.88,SSE,165,0.0,0.0,96,0.00,,,0.00,weatherlink.com 1.10,2013-03-19 05:32:00,
2013-03-19 00:46:00,58.2,57.0,29.91,SW,229,1.0,1.0,96,0.00,,,0.00,weatherlink.com 1.10,2013-03-19 05:46:00,
2013-03-19 01:01:00,58.5,57.0,29.96,WNW,290,0.0,17.0,96,0.21,,,0.21,weatherlink.com 1.10,2013-03-19 06:01:00,
2013-03-19 01:16:00,58.1,57.0,29.91,North,1,4.0,6.0,96,0.30,,,0.30,weatherlink.com 1.10,2013-03-19 06:16:00,
2013-03-19 01:31:00,58.1,57.0,29.88,NE,43,6.0,6.0,96,0.31,,,0.31,weatherlink.com 1.10,2013-03-19 06:31:00,
2013-03-19 01:46:00,58.4,57.0,29.84,SE,134,0.0,5.0,96,0.31,,,0.31,weatherlink.com 1.10,2013-03-19 06:46:00,
2013-03-19 02:01:00,57.9,57.0,29.82,ESE,110,0.0,2.0,96,0.09,,,0.31,weatherlink.com 1.10,2013-03-19 07:01:00,
2013-03-19 02:16:00,57.5,56.0,29.84,SSW,193,0.0,0.0,96,0.01,,,0.31,weatherlink.com 1.10,2013-03-19 07:16:00,
2013-03-19 02:31:00,57.2,56.0,29.86,SSW,210,0.0,4.0,96,0.00,,,0.31,weatherlink.com 1.10,2013-03-19 07:31:00,
2013-03-19 02:46:00,56.8,56.0,29.87,SW,222,0.0,2.0,96,0.00,,,0.31,weatherlink.com 1.10,2013-03-19 07:46:00,
2013-03-19 03:01:00,56.2,55.0,29.88,SSE,156,2.0,5.0,96,0.00,,,0.31,weatherlink.com 1.10,2013-03-19 08:01:00,
2013-03-19 03:16:00,55.7,55.0,29.90,WSW,239,0.0,1.0,96,0.00,,,0.31,weatherlink.com 1.10,2013-03-19 08:16:00,
2013-03-19 03:31:00,56.1,55.0,29.90,SW,227,4.0,5.0,96,0.00,,,0.31,weatherlink.com 1.10,2013-03-19 08:31:00,
2013-03-19 03:47:00,56.2,55.0,29.90,SW,229,0.0,2.0,96,0.00,,,0.31,weatherlink.com 1.10,2013-03-19 08:47:00,
2013-03-19 04:01:00,56.4,55.0,29.90,ENE,57,0.0,1.0,96,0.00,,,0.31,weatherlink.com 1.10,2013-03-19 09:01:00,
2013-03-19 04:16:00,56.5,55.0,29.90,NE,53,0.0,0.0,96,0.00,,,0.31,weatherlink.com 1.10,2013-03-19 09:16:00,
2013-03-19 04:32:00,56.5,55.0,29.91,NE,53,0.0,0.0,96,0.00,,,0.31,weatherlink.com 1.10,2013-03-19 09:32:00,
2013-03-19 04:46:00,56.7,56.0,29.92,NNW,333,2.0,5.0,96,0.00,,,0.31,weatherlink.com 1.10,2013-03-19 09:46:00,
2013-03-19 05:01:00,57.0,56.0,29.93,North,1,2.0,6.0,96,0.00,,,0.31,weatherlink.com 1.10,2013-03-19 10:01:00,
2013-03-19 05:16:00,57.2,56.0,29.94,North,10,1.0,9.0,96,0.00,,,0.31,weatherlink.com 1.10,2013-03-19 10:16:00,
2013-03-19 05:32:00,57.3,56.0,29.94,NNE,16,3.0,6.0,96,0.00,,,0.31,weatherlink.com 1.10,2013-03-19 10:32:00,
2013-03-19 05:47:00,57.1,56.0,29.95,NW,315,1.0,6.0,96,0.00,,,0.31,weatherlink.com 1.10,2013-03-19 10:47:00,
2013-03-19 06:02:00,57.0,56.0,29.95,NNW,332,4.0,7.0,96,0.00,,,0.31,weatherlink.com 1.10,2013-03-19 11:02:00,
2013-03-19 06:17:00,56.9,56.0,29.96,NW,319,3.0,7.0,96,0.00,,,0.31,weatherlink.com 1.10,2013-03-19 11:17:00,
2013-03-19 06:32:00,56.7,56.0,29.96,NW,308,0.0,6.0,96,0.00,,,0.31,weatherlink.com 1.10,2013-03-19 11:32:00,
2013-03-19 06:47:00,56.4,55.0,29.97,NW,321,2.0,5.0,96,0.00,,,0.31,weatherlink.com 1.10,2013-03-19 11:47:00,
2013-03-19 07:02:00,56.5,55.0,29.98,NNW,343,4.0,8.0,96,0.00,,,0.31,weatherlink.com 1.10,2013-03-19 12:02:00,
2013-03-19 07:17:00,56.4,55.0,29.99,WNW,301,5.0,10.0,96,0.00,,,0.31,weatherlink.com 1.10,2013-03-19 12:17:00,
2013-03-19 07:32:00,56.2,55.0,30.00,North,10,4.0,10.0,95,0.00,,,0.31,weatherlink.com 1.10,2013-03-19 12:32:00,
2013-03-19 07:47:00,56.1,55.0,30.00,NNW,336,3.0,9.0,95,0.00,,,0.31,weatherlink.com 1.10,2013-03-19 12:47:00,
2013-03-19 08:02:00,56.2,55.0,30.00,NNE,16,4.0,8.0,95,0.00,,,0.31,weatherlink.com 1.10,2013-03-19 13:02:00,
2013-03-19 08:32:00,56.1,54.0,30.02,NW,322,3.0,10.0,92,0.00,,,0.31,weatherlink.com 1.10,2013-03-19 13:32:00,
2013-03-19 08:47:00,56.4,54.0,30.02,North,1,1.0,10.0,92,0.00,,,0.31,weatherlink.com 1.10,2013-03-19 13:47:00,
2013-03-19 09:02:00,56.6,54.0,30.02,NW,321,2.0,9.0,90,0.00,,,0.31,weatherlink.com 1.10,2013-03-19 14:02:00,
2013-03-19 09:17:00,56.9,54.0,30.02,North,354,3.0,10.0,90,0.00,,,0.31,weatherlink.com 1.10,2013-03-19 14:17:00,
2013-03-19 09:32:00,57.3,55.0,30.03,NW,318,4.0,8.0,90,0.00,,,0.31,weatherlink.com 1.10,2013-03-19 14:32:00,
2013-03-19 09:47:00,57.4,54.0,30.03,NNE,14,3.0,7.0,89,0.00,,,0.31,weatherlink.com 1.10,2013-03-19 14:47:00,
2013-03-19 10:02:00,59.0,55.0,30.03,North,6,2.0,9.0,85,0.00,,,0.31,weatherlink.com 1.10,2013-03-19 15:02:00,
2013-03-19 10:17:00,60.3,55.0,30.03,NNE,15,0.0,8.0,83,0.00,,,0.31,weatherlink.com 1.10,2013-03-19 15:17:00,
2013-03-19 10:32:00,60.2,55.0,30.03,East,94,1.0,7.0,82,0.00,,,0.31,weatherlink.com 1.10,2013-03-19 15:32:00,
2013-03-19 10:47:00,60.6,54.0,30.03,NNW,338,3.0,9.0,79,0.00,,,0.31,weatherlink.com 1.10,2013-03-19 15:47:00,
2013-03-19 11:02:00,61.4,55.0,30.03,NE,43,1.0,7.0,78,0.00,,,0.31,weatherlink.com 1.10,2013-03-19 16:02:00,
2013-03-19 11:17:00,62.9,55.0,30.03,North,349,4.0,7.0,74,0.00,,,0.31,weatherlink.com 1.10,2013-03-19 16:17:00,
2013-03-19 11:32:00,64.4,56.0,30.02,NNW,347,1.0,5.0,75,0.00,,,0.31,weatherlink.com 1.10,2013-03-19 16:32:00,
2013-03-19 11:47:00,65.1,55.0,30.02,NNW,332,1.0,5.0,70,0.00,,,0.31,weatherlink.com 1.10,2013-03-19 16:47:00,
2013-03-19 12:02:00,66.6,56.0,30.01,ENE,70,1.0,7.0,68,0.00,,,0.31,weatherlink.com 1.10,2013-03-19 17:02:00,
2013-03-19 12:17:00,67.2,54.0,30.01,North,357,2.0,7.0,63,0.00,,,0.31,weatherlink.com 1.10,2013-03-19 17:17:00,
2013-03-19 12:32:00,67.6,53.0,30.01,East,81,1.0,9.0,59,0.00,,,0.31,weatherlink.com 1.10,2013-03-19 17:32:00,
2013-03-19 12:48:00,68.9,54.0,30.01,North,9,2.0,7.0,59,0.00,,,0.31,weatherlink.com 1.10,2013-03-19 17:48:00,
2013-03-19 13:03:00,69.5,51.0,30.00,NNW,345,1.0,5.0,53,0.00,,,0.31,weatherlink.com 1.10,2013-03-19 18:03:00,
2013-03-19 13:18:00,70.5,54.0,29.99,NNE,32,0.0,8.0,56,0.00,,,0.31,weatherlink.com 1.10,2013-03-19 18:18:00,
2013-03-19 13:33:00,71.1,53.0,29.98,North,5,1.0,6.0,53,0.00,,,0.31,weatherlink.com 1.10,2013-03-19 18:33:00,
2013-03-19 13:48:00,72.5,53.0,29.98,SSE,155,0.0,6.0,51,0.00,,,0.31,weatherlink.com 1.10,2013-03-19 18:48:00,
2013-03-19 14:03:00,73.7,53.0,29.97,ENE,71,2.0,3.0,48,0.00,,,0.31,weatherlink.com 1.10,2013-03-19 19:03:00,
2013-03-19 14:18:00,72.8,52.0,29.96,NE,53,1.0,6.0,48,0.00,,,0.31,weatherlink.com 1.10,2013-03-19 19:18:00,
2013-03-19 14:33:00,73.1,51.0,29.96,SW,214,0.0,8.0,46,0.00,,,0.31,weatherlink.com 1.10,2013-03-19 19:33:00,
2013-03-19 14:48:00,73.7,50.0,29.96,NW,304,4.0,8.0,44,0.00,,,0.31,weatherlink.com 1.10,2013-03-19 19:48:00,
2013-03-19 15:03:00,73.9,48.0,29.96,WNW,297,4.0,10.0,40,0.00,,,0.31,weatherlink.com 1.10,2013-03-19 20:03:00,
2013-03-19 15:18:00,74.1,49.0,29.95,NW,325,2.0,7.0,41,0.00,,,0.31,weatherlink.com 1.10,2013-03-19 20:18:00,
2013-03-19 15:33:00,75.0,48.0,29.95,NNE,12,4.0,6.0,39,0.00,,,0.31,weatherlink.com 1.10,2013-03-19 20:33:00,
2013-03-19 15:48:00,74.7,47.0,29.95,NW,304,2.0,8.0,38,0.00,,,0.31,weatherlink.com 1.10,2013-03-19 20:48:00,
2013-03-19 16:03:00,75.1,47.0,29.95,NNE,23,6.0,8.0,37,0.00,,,0.31,weatherlink.com 1.10,2013-03-19 21:03:00,
2013-03-19 16:18:00,75.6,47.0,29.95,NNW,339,5.0,6.0,36,0.00,,,0.31,weatherlink.com 1.10,2013-03-19 21:18:00,
2013-03-19 16:33:00,74.8,47.0,29.95,NNW,342,2.0,6.0,37,0.00,,,0.31,weatherlink.com 1.10,2013-03-19 21:33:00,
2013-03-19 16:48:00,74.8,47.0,29.94,NW,315,4.0,6.0,38,0.00,,,0.31,weatherlink.com 1.10,2013-03-19 21:48:00,
2013-03-19 17:03:00,74.7,48.0,29.94,NNW,332,4.0,11.0,39,0.00,,,0.31,weatherlink.com 1.10,2013-03-19 22:03:00,
2013-03-19 17:18:00,74.2,46.0,29.94,NE,34,4.0,8.0,37,0.00,,,0.31,weatherlink.com 1.10,2013-03-19 22:18:00,
2013-03-19 17:33:00,73.9,45.0,29.93,NNE,18,8.0,8.0,35,0.00,,,0.31,weatherlink.com 1.10,2013-03-19 22:33:00,
2013-03-19 17:48:00,73.5,45.0,29.94,NE,39,3.0,6.0,36,0.00,,,0.31,weatherlink.com 1.10,2013-03-19 22:48:00,
2013-03-19 18:03:00,72.7,45.0,29.93,NE,37,4.0,6.0,37,0.00,,,0.31,weatherlink.com 1.10,2013-03-19 23:03:00,
2013-03-19 18:18:00,71.8,44.0,29.94,NNE,27,1.0,3.0,37,0.00,,,0.31,weatherlink.com 1.10,2013-03-19 23:18:00,
2013-03-19 18:33:00,70.1,45.0,29.94,NNE,30,0.0,2.0,40,0.00,,,0.31,weatherlink.com 1.10,2013-03-19 23:33:00,
2013-03-19 18:48:00,67.3,45.0,29.94,NE,35,0.0,1.0,45,0.00,,,0.31,weatherlink.com 1.10,2013-03-19 23:48:00,
2013-03-19 19:03:00,64.4,46.0,29.95,NNW,345,1.0,1.0,52,0.00,,,0.31,weatherlink.com 1.10,2013-03-20 00:03:00,
2013-03-19 19:18:00,62.1,46.0,29.95,NNW,345,0.0,0.0,56,0.00,,,0.31,weatherlink.com 1.10,2013-03-20 00:18:00,
2013-03-19 19:33:00,60.5,47.0,29.96,NNW,345,0.0,0.0,61,0.00,,,0.31,weatherlink.com 1.10,2013-03-20 00:33:00,
2013-03-19 19:48:00,59.4,46.0,29.97,NNW,345,0.0,0.0,61,0.00,,,0.31,weatherlink.com 1.10,2013-03-20 00:48:00,
2013-03-19 20:03:00,58.3,45.0,29.97,NNW,345,0.0,0.0,62,0.00,,,0.31,weatherlink.com 1.10,2013-03-20 01:03:00,
2013-03-19 20:18:00,57.3,46.0,29.97,NNW,345,0.0,0.0,65,0.00,,,0.31,weatherlink.com 1.10,2013-03-20 01:18:00,
2013-03-19 20:33:00,56.1,46.0,29.97,NNW,345,0.0,0.0,68,0.00,,,0.31,weatherlink.com 1.10,2013-03-20 01:33:00,
2013-03-19 20:48:00,55.1,45.0,29.98,NNW,345,0.0,0.0,70,0.00,,,0.31,weatherlink.com 1.10,2013-03-20 01:48:00,
2013-03-19 21:03:00,54.5,47.0,29.98,NNW,345,0.0,0.0,77,0.00,,,0.31,weatherlink.com 1.10,2013-03-20 02:03:00,
2013-03-19 21:18:00,55.4,47.0,29.98,NE,39,0.0,0.0,73,0.00,,,0.31,weatherlink.com 1.10,2013-03-20 02:18:00,
2013-03-19 21:33:00,54.5,47.0,29.98,NNE,15,0.0,0.0,77,0.00,,,0.31,weatherlink.com 1.10,2013-03-20 02:33:00,
2013-03-19 21:48:00,54.2,47.0,29.99,NNE,15,0.0,0.0,77,0.00,,,0.31,weatherlink.com 1.10,2013-03-20 02:48:00,
2013-03-19 22:03:00,54.0,46.0,30.00,NNE,15,0.0,0.0,73,0.00,,,0.31,weatherlink.com 1.10,2013-03-20 03:03:00,
2013-03-19 22:18:00,54.2,45.0,30.00,NNE,16,0.0,1.0,70,0.00,,,0.31,weatherlink.com 1.10,2013-03-20 03:18:00,
2013-03-19 22:33:00,56.6,44.0,30.00,North,5,0.0,7.0,63,0.00,,,0.31,weatherlink.com 1.10,2013-03-20 03:33:00,
2013-03-19 22:48:00,56.8,41.0,30.00,North,10,3.0,4.0,57,0.00,,,0.31,weatherlink.com 1.10,2013-03-20 03:48:00,
2013-03-19 23:03:00,56.8,41.0,30.01,NNE,20,1.0,4.0,57,0.00,,,0.31,weatherlink.com 1.10,2013-03-20 04:03:00,
2013-03-19 23:18:00,56.4,42.0,30.00,North,5,0.0,3.0,59,0.00,,,0.31,weatherlink.com 1.10,2013-03-20 04:18:00,
2013-03-19 23:33:00,56.2,40.0,30.01,NNW,335,1.0,3.0,55,0.00,,,0.31,weatherlink.com 1.10,2013-03-20 04:33:00,
2013-03-19 23:48:00,56.1,39.0,30.01,NW,323,2.0,5.0,54,0.00,,,0.31,weatherlink.com 1.10,2013-03-20 04:48:00,